sensor_id;sensor_type;location;lat;lon;timestamp;P1;durP1;ratioP1;P2;durP2;ratioP2
17251;SDS011;8742;51.716;8.790;2023-05-24T00:02:17;14.20;;;5.60;;
17251;SDS011;8742;51.716;8.790;2023-05-24T00:04:44;19.97;;;5.30;;
17251;SDS011;8742;51.716;8.790;2023-05-24T00:07:13;16.20;;;4.50;;
17251;SDS011;8742;51.716;8.790;2023-05-24T00:09:40;22.43;;;4.23;;
17251;SDS011;8742;51.716;8.790;2023-05-24T00:12:09;26.60;;;4.20;;
17251;SDS011;8742;51.716;8.790;2023-05-24T00:14:36;19.10;;;4.87;;
17251;SDS011;8742;51.716;8.790;2023-05-24T00:17:03;17.27;;;3.67;;
17251;SDS011;8742;51.716;8.790;2023-05-24T00:19:30;16.63;;;3.97;;
17251;SDS011;8742;51.716;8.790;2023-05-24T00:21:57;12.50;;;3.97;;
17251;SDS011;8742;51.716;8.790;2023-05-24T00:24:24;14.03;;;3.77;;
17251;SDS011;8742;51.716;8.790;2023-05-24T00:26:51;14.57;;;3.90;;
17251;SDS011;8742;51.716;8.790;2023-05-24T00:29:19;17.70;;;3.73;;
17251;SDS011;8742;51.716;8.790;2023-05-24T00:31:46;15.63;;;3.57;;
17251;SDS011;8742;51.716;8.790;2023-05-24T00:34:13;12.00;;;3.90;;
17251;SDS011;8742;51.716;8.790;2023-05-24T00:36:40;11.40;;;3.90;;
17251;SDS011;8742;51.716;8.790;2023-05-24T00:39:08;19.17;;;3.57;;
17251;SDS011;8742;51.716;8.790;2023-05-24T00:41:36;12.43;;;3.70;;
17251;SDS011;8742;51.716;8.790;2023-05-24T00:44:03;11.50;;;3.67;;
17251;SDS011;8742;51.716;8.790;2023-05-24T00:46:31;15.07;;;4.50;;
17251;SDS011;8742;51.716;8.790;2023-05-24T00:48:59;19.93;;;4.67;;
17251;SDS011;8742;51.716;8.790;2023-05-24T00:51:26;12.57;;;4.13;;
17251;SDS011;8742;51.716;8.790;2023-05-24T00:53:54;29.00;;;5.03;;
17251;SDS011;8742;51.716;8.790;2023-05-24T00:56:21;16.60;;;4.70;;
17251;SDS011;8742;51.716;8.790;2023-05-24T00:58:48;17.70;;;4.03;;
17251;SDS011;8742;51.716;8.790;2023-05-24T01:01:18;11.57;;;4.00;;
17251;SDS011;8742;51.716;8.790;2023-05-24T01:03:50;15.37;;;4.33;;
17251;SDS011;8742;51.716;8.790;2023-05-24T01:06:18;18.87;;;4.37;;
17251;SDS011;8742;51.716;8.790;2023-05-24T01:09:00;16.47;;;4.70;;
17251;SDS011;8742;51.716;8.790;2023-05-24T01:11:41;13.67;;;4.30;;
17251;SDS011;8742;51.716;8.790;2023-05-24T01:14:17;18.13;;;4.20;;
17251;SDS011;8742;51.716;8.790;2023-05-24T01:16:53;11.93;;;4.07;;
17251;SDS011;8742;51.716;8.790;2023-05-24T01:19:38;20.37;;;4.20;;
17251;SDS011;8742;51.716;8.790;2023-05-24T01:22:23;13.57;;;4.00;;
17251;SDS011;8742;51.716;8.790;2023-05-24T01:24:58;17.23;;;5.30;;
17251;SDS011;8742;51.716;8.790;2023-05-24T01:27:30;12.73;;;3.97;;
17251;SDS011;8742;51.716;8.790;2023-05-24T01:29:59;20.00;;;4.23;;
17251;SDS011;8742;51.716;8.790;2023-05-24T01:32:28;16.37;;;3.90;;
17251;SDS011;8742;51.716;8.790;2023-05-24T01:34:56;19.53;;;4.67;;
17251;SDS011;8742;51.716;8.790;2023-05-24T01:37:23;13.00;;;4.17;;
17251;SDS011;8742;51.716;8.790;2023-05-24T01:39:50;17.30;;;4.27;;
17251;SDS011;8742;51.716;8.790;2023-05-24T01:42:20;23.27;;;4.63;;
17251;SDS011;8742;51.716;8.790;2023-05-24T01:44:56;16.10;;;4.30;;
17251;SDS011;8742;51.716;8.790;2023-05-24T01:47:35;15.60;;;4.87;;
17251;SDS011;8742;51.716;8.790;2023-05-24T01:50:12;19.73;;;5.17;;
17251;SDS011;8742;51.716;8.790;2023-05-24T01:52:43;22.60;;;4.70;;
17251;SDS011;8742;51.716;8.790;2023-05-24T01:55:12;17.43;;;4.23;;
17251;SDS011;8742;51.716;8.790;2023-05-24T01:57:42;23.50;;;4.90;;
17251;SDS011;8742;51.716;8.790;2023-05-24T02:00:13;19.07;;;4.60;;
17251;SDS011;8742;51.716;8.790;2023-05-24T02:02:41;11.20;;;4.20;;
17251;SDS011;8742;51.716;8.790;2023-05-24T02:05:08;15.57;;;4.60;;
17251;SDS011;8742;51.716;8.790;2023-05-24T02:07:36;19.13;;;5.10;;
17251;SDS011;8742;51.716;8.790;2023-05-24T02:10:05;25.07;;;5.30;;
17251;SDS011;8742;51.716;8.790;2023-05-24T02:12:33;19.20;;;5.13;;
17251;SDS011;8742;51.716;8.790;2023-05-24T02:15:00;21.17;;;5.03;;
17251;SDS011;8742;51.716;8.790;2023-05-24T02:17:28;25.03;;;5.43;;
17251;SDS011;8742;51.716;8.790;2023-05-24T02:19:56;19.63;;;5.67;;
17251;SDS011;8742;51.716;8.790;2023-05-24T02:22:23;20.60;;;6.80;;
17251;SDS011;8742;51.716;8.790;2023-05-24T02:24:50;27.13;;;7.43;;
17251;SDS011;8742;51.716;8.790;2023-05-24T02:27:17;28.87;;;7.47;;
17251;SDS011;8742;51.716;8.790;2023-05-24T02:29:44;20.33;;;5.47;;
17251;SDS011;8742;51.716;8.790;2023-05-24T02:32:11;21.47;;;5.93;;
17251;SDS011;8742;51.716;8.790;2023-05-24T02:34:40;16.53;;;4.83;;
17251;SDS011;8742;51.716;8.790;2023-05-24T02:37:08;16.90;;;4.83;;
17251;SDS011;8742;51.716;8.790;2023-05-24T02:39:38;25.93;;;5.33;;
17251;SDS011;8742;51.716;8.790;2023-05-24T02:42:06;23.37;;;5.47;;
17251;SDS011;8742;51.716;8.790;2023-05-24T02:44:33;17.80;;;5.30;;
17251;SDS011;8742;51.716;8.790;2023-05-24T02:47:00;25.87;;;5.63;;
17251;SDS011;8742;51.716;8.790;2023-05-24T02:49:27;27.67;;;5.97;;
17251;SDS011;8742;51.716;8.790;2023-05-24T02:51:55;14.43;;;5.07;;
17251;SDS011;8742;51.716;8.790;2023-05-24T02:54:21;17.67;;;5.53;;
17251;SDS011;8742;51.716;8.790;2023-05-24T02:56:48;20.17;;;5.30;;
17251;SDS011;8742;51.716;8.790;2023-05-24T02:59:15;21.20;;;5.40;;
17251;SDS011;8742;51.716;8.790;2023-05-24T03:01:42;19.63;;;5.17;;
17251;SDS011;8742;51.716;8.790;2023-05-24T03:04:09;21.87;;;5.43;;
17251;SDS011;8742;51.716;8.790;2023-05-24T03:06:36;18.37;;;5.43;;
17251;SDS011;8742;51.716;8.790;2023-05-24T03:09:04;18.13;;;5.20;;
17251;SDS011;8742;51.716;8.790;2023-05-24T03:11:31;18.50;;;5.63;;
17251;SDS011;8742;51.716;8.790;2023-05-24T03:13:58;22.80;;;5.40;;
17251;SDS011;8742;51.716;8.790;2023-05-24T03:16:25;15.57;;;4.93;;
17251;SDS011;8742;51.716;8.790;2023-05-24T03:18:52;19.97;;;5.53;;
17251;SDS011;8742;51.716;8.790;2023-05-24T03:21:20;22.93;;;6.03;;
17251;SDS011;8742;51.716;8.790;2023-05-24T03:23:47;28.00;;;5.63;;
17251;SDS011;8742;51.716;8.790;2023-05-24T03:26:15;22.43;;;5.43;;
17251;SDS011;8742;51.716;8.790;2023-05-24T03:28:42;25.37;;;5.73;;
17251;SDS011;8742;51.716;8.790;2023-05-24T03:31:10;20.50;;;5.40;;
17251;SDS011;8742;51.716;8.790;2023-05-24T03:33:37;18.80;;;5.03;;
17251;SDS011;8742;51.716;8.790;2023-05-24T03:36:04;19.97;;;5.30;;
17251;SDS011;8742;51.716;8.790;2023-05-24T03:38:31;17.30;;;5.47;;
17251;SDS011;8742;51.716;8.790;2023-05-24T03:40:58;20.50;;;5.53;;
17251;SDS011;8742;51.716;8.790;2023-05-24T03:43:27;23.13;;;5.87;;
17251;SDS011;8742;51.716;8.790;2023-05-24T03:45:53;22.03;;;6.33;;
17251;SDS011;8742;51.716;8.790;2023-05-24T03:48:20;27.87;;;6.47;;
17251;SDS011;8742;51.716;8.790;2023-05-24T03:50:47;26.73;;;6.30;;
17251;SDS011;8742;51.716;8.790;2023-05-24T03:53:14;18.70;;;5.97;;
17251;SDS011;8742;51.716;8.790;2023-05-24T03:55:41;20.57;;;6.30;;
17251;SDS011;8742;51.716;8.790;2023-05-24T03:58:08;17.70;;;5.73;;
17251;SDS011;8742;51.716;8.790;2023-05-24T04:00:36;24.60;;;5.53;;
17251;SDS011;8742;51.716;8.790;2023-05-24T04:03:03;17.73;;;5.60;;
17251;SDS011;8742;51.716;8.790;2023-05-24T04:05:30;19.80;;;5.33;;
17251;SDS011;8742;51.716;8.790;2023-05-24T04:07:57;20.17;;;5.77;;
17251;SDS011;8742;51.716;8.790;2023-05-24T04:10:24;29.23;;;6.20;;
17251;SDS011;8742;51.716;8.790;2023-05-24T04:12:51;26.43;;;7.13;;
17251;SDS011;8742;51.716;8.790;2023-05-24T04:15:18;17.00;;;5.73;;
17251;SDS011;8742;51.716;8.790;2023-05-24T04:17:46;16.40;;;5.30;;
17251;SDS011;8742;51.716;8.790;2023-05-24T04:20:19;20.80;;;5.77;;
17251;SDS011;8742;51.716;8.790;2023-05-24T04:22:47;24.10;;;6.10;;
17251;SDS011;8742;51.716;8.790;2023-05-24T04:25:15;29.57;;;6.70;;
17251;SDS011;8742;51.716;8.790;2023-05-24T04:27:42;16.83;;;6.30;;
17251;SDS011;8742;51.716;8.790;2023-05-24T04:30:12;26.47;;;6.07;;
17251;SDS011;8742;51.716;8.790;2023-05-24T04:32:40;17.87;;;6.73;;
17251;SDS011;8742;51.716;8.790;2023-05-24T04:35:09;24.53;;;5.97;;
17251;SDS011;8742;51.716;8.790;2023-05-24T04:37:36;22.67;;;6.33;;
17251;SDS011;8742;51.716;8.790;2023-05-24T04:40:04;22.30;;;6.17;;
17251;SDS011;8742;51.716;8.790;2023-05-24T04:42:32;22.90;;;6.03;;
17251;SDS011;8742;51.716;8.790;2023-05-24T04:44:58;27.77;;;6.43;;
17251;SDS011;8742;51.716;8.790;2023-05-24T04:47:25;25.20;;;5.67;;
17251;SDS011;8742;51.716;8.790;2023-05-24T04:49:52;21.20;;;5.73;;
17251;SDS011;8742;51.716;8.790;2023-05-24T04:52:20;23.83;;;5.47;;
17251;SDS011;8742;51.716;8.790;2023-05-24T04:54:47;23.37;;;6.30;;
17251;SDS011;8742;51.716;8.790;2023-05-24T04:57:15;28.30;;;6.60;;
17251;SDS011;8742;51.716;8.790;2023-05-24T04:59:42;23.67;;;5.83;;
17251;SDS011;8742;51.716;8.790;2023-05-24T05:02:09;28.37;;;6.50;;
17251;SDS011;8742;51.716;8.790;2023-05-24T05:04:35;20.23;;;6.27;;
17251;SDS011;8742;51.716;8.790;2023-05-24T05:07:02;15.50;;;5.50;;
17251;SDS011;8742;51.716;8.790;2023-05-24T05:09:31;24.20;;;5.50;;
17251;SDS011;8742;51.716;8.790;2023-05-24T05:11:58;29.03;;;6.37;;
17251;SDS011;8742;51.716;8.790;2023-05-24T05:14:24;23.67;;;5.63;;
17251;SDS011;8742;51.716;8.790;2023-05-24T05:16:51;19.47;;;5.97;;
17251;SDS011;8742;51.716;8.790;2023-05-24T05:19:18;24.97;;;6.13;;
17251;SDS011;8742;51.716;8.790;2023-05-24T05:21:45;25.33;;;6.33;;
17251;SDS011;8742;51.716;8.790;2023-05-24T05:24:13;22.03;;;4.93;;
17251;SDS011;8742;51.716;8.790;2023-05-24T05:26:42;17.77;;;4.77;;
17251;SDS011;8742;51.716;8.790;2023-05-24T05:29:09;19.17;;;5.20;;
17251;SDS011;8742;51.716;8.790;2023-05-24T05:31:35;26.63;;;5.70;;
17251;SDS011;8742;51.716;8.790;2023-05-24T05:34:03;27.17;;;6.17;;
17251;SDS011;8742;51.716;8.790;2023-05-24T05:36:33;20.60;;;5.30;;
17251;SDS011;8742;51.716;8.790;2023-05-24T05:39:04;19.60;;;6.07;;
17251;SDS011;8742;51.716;8.790;2023-05-24T05:41:33;19.77;;;5.30;;
17251;SDS011;8742;51.716;8.790;2023-05-24T05:44:02;22.63;;;5.93;;
17251;SDS011;8742;51.716;8.790;2023-05-24T05:46:29;23.37;;;6.03;;
17251;SDS011;8742;51.716;8.790;2023-05-24T05:48:56;14.17;;;5.13;;
17251;SDS011;8742;51.716;8.790;2023-05-24T05:51:23;28.60;;;6.43;;
17251;SDS011;8742;51.716;8.790;2023-05-24T05:53:50;30.77;;;6.20;;
17251;SDS011;8742;51.716;8.790;2023-05-24T05:56:17;24.20;;;5.70;;
17251;SDS011;8742;51.716;8.790;2023-05-24T05:58:43;24.87;;;6.20;;
17251;SDS011;8742;51.716;8.790;2023-05-24T06:01:11;28.20;;;6.80;;
17251;SDS011;8742;51.716;8.790;2023-05-24T06:03:39;22.97;;;6.03;;
17251;SDS011;8742;51.716;8.790;2023-05-24T06:06:06;25.53;;;5.60;;
17251;SDS011;8742;51.716;8.790;2023-05-24T06:08:32;19.97;;;5.47;;
17251;SDS011;8742;51.716;8.790;2023-05-24T06:11:00;19.33;;;5.73;;
17251;SDS011;8742;51.716;8.790;2023-05-24T06:13:27;26.17;;;5.73;;
17251;SDS011;8742;51.716;8.790;2023-05-24T06:15:55;21.73;;;6.03;;
17251;SDS011;8742;51.716;8.790;2023-05-24T06:18:25;20.80;;;6.57;;
17251;SDS011;8742;51.716;8.790;2023-05-24T06:20:54;24.43;;;6.50;;
17251;SDS011;8742;51.716;8.790;2023-05-24T06:23:21;27.37;;;6.43;;
17251;SDS011;8742;51.716;8.790;2023-05-24T06:25:48;25.33;;;6.27;;
17251;SDS011;8742;51.716;8.790;2023-05-24T06:28:15;24.63;;;6.20;;
17251;SDS011;8742;51.716;8.790;2023-05-24T06:30:41;25.37;;;6.10;;
17251;SDS011;8742;51.716;8.790;2023-05-24T06:33:08;28.10;;;6.63;;
17251;SDS011;8742;51.716;8.790;2023-05-24T06:35:36;25.27;;;6.80;;
17251;SDS011;8742;51.716;8.790;2023-05-24T06:38:03;23.00;;;6.07;;
17251;SDS011;8742;51.716;8.790;2023-05-24T06:40:30;26.77;;;7.50;;
17251;SDS011;8742;51.716;8.790;2023-05-24T06:42:57;25.67;;;6.57;;
17251;SDS011;8742;51.716;8.790;2023-05-24T06:45:24;19.37;;;6.90;;
17251;SDS011;8742;51.716;8.790;2023-05-24T06:47:52;25.33;;;6.30;;
17251;SDS011;8742;51.716;8.790;2023-05-24T06:50:18;26.37;;;6.67;;
17251;SDS011;8742;51.716;8.790;2023-05-24T06:52:47;17.07;;;6.17;;
17251;SDS011;8742;51.716;8.790;2023-05-24T06:55:14;33.87;;;6.87;;
17251;SDS011;8742;51.716;8.790;2023-05-24T06:57:41;23.30;;;7.47;;
17251;SDS011;8742;51.716;8.790;2023-05-24T07:00:08;24.50;;;7.00;;
17251;SDS011;8742;51.716;8.790;2023-05-24T07:02:36;38.60;;;10.03;;
17251;SDS011;8742;51.716;8.790;2023-05-24T07:05:03;24.00;;;7.77;;
17251;SDS011;8742;51.716;8.790;2023-05-24T07:07:32;25.47;;;7.77;;
17251;SDS011;8742;51.716;8.790;2023-05-24T07:10:00;29.40;;;7.73;;
17251;SDS011;8742;51.716;8.790;2023-05-24T07:12:27;22.40;;;7.80;;
17251;SDS011;8742;51.716;8.790;2023-05-24T07:14:54;25.63;;;7.50;;
17251;SDS011;8742;51.716;8.790;2023-05-24T07:17:21;34.03;;;8.43;;
17251;SDS011;8742;51.716;8.790;2023-05-24T07:19:48;25.80;;;7.70;;
17251;SDS011;8742;51.716;8.790;2023-05-24T07:22:15;20.27;;;7.17;;
17251;SDS011;8742;51.716;8.790;2023-05-24T07:24:42;23.47;;;7.10;;
17251;SDS011;8742;51.716;8.790;2023-05-24T07:27:10;26.40;;;7.37;;
17251;SDS011;8742;51.716;8.790;2023-05-24T07:29:37;21.20;;;7.43;;
17251;SDS011;8742;51.716;8.790;2023-05-24T07:32:04;29.63;;;7.63;;
17251;SDS011;8742;51.716;8.790;2023-05-24T07:34:31;27.50;;;7.73;;
17251;SDS011;8742;51.716;8.790;2023-05-24T07:36:58;25.70;;;7.57;;
17251;SDS011;8742;51.716;8.790;2023-05-24T07:39:26;27.20;;;7.10;;
17251;SDS011;8742;51.716;8.790;2023-05-24T07:41:53;30.23;;;8.00;;
17251;SDS011;8742;51.716;8.790;2023-05-24T07:44:21;21.90;;;7.57;;
17251;SDS011;8742;51.716;8.790;2023-05-24T07:46:48;22.80;;;7.07;;
17251;SDS011;8742;51.716;8.790;2023-05-24T07:49:15;29.60;;;7.70;;
17251;SDS011;8742;51.716;8.790;2023-05-24T07:51:42;27.07;;;7.33;;
17251;SDS011;8742;51.716;8.790;2023-05-24T07:54:09;32.27;;;6.90;;
17251;SDS011;8742;51.716;8.790;2023-05-24T07:56:36;25.37;;;7.20;;
17251;SDS011;8742;51.716;8.790;2023-05-24T07:59:02;22.13;;;7.47;;
17251;SDS011;8742;51.716;8.790;2023-05-24T08:01:31;19.03;;;6.57;;
17251;SDS011;8742;51.716;8.790;2023-05-24T08:03:59;26.67;;;7.60;;
17251;SDS011;8742;51.716;8.790;2023-05-24T08:06:27;26.50;;;7.33;;
17251;SDS011;8742;51.716;8.790;2023-05-24T08:08:54;22.43;;;6.83;;
17251;SDS011;8742;51.716;8.790;2023-05-24T08:11:21;28.00;;;7.37;;
17251;SDS011;8742;51.716;8.790;2023-05-24T08:13:48;27.20;;;7.10;;
17251;SDS011;8742;51.716;8.790;2023-05-24T08:16:15;22.53;;;6.50;;
17251;SDS011;8742;51.716;8.790;2023-05-24T08:18:43;26.20;;;6.70;;
17251;SDS011;8742;51.716;8.790;2023-05-24T08:21:10;24.73;;;6.90;;
17251;SDS011;8742;51.716;8.790;2023-05-24T08:23:37;21.63;;;6.77;;
17251;SDS011;8742;51.716;8.790;2023-05-24T08:26:04;21.50;;;7.00;;
17251;SDS011;8742;51.716;8.790;2023-05-24T08:28:31;24.97;;;6.87;;
17251;SDS011;8742;51.716;8.790;2023-05-24T08:30:58;22.83;;;7.27;;
17251;SDS011;8742;51.716;8.790;2023-05-24T08:33:24;21.43;;;6.90;;
17251;SDS011;8742;51.716;8.790;2023-05-24T08:35:54;29.57;;;7.90;;
17251;SDS011;8742;51.716;8.790;2023-05-24T08:38:21;21.63;;;6.53;;
17251;SDS011;8742;51.716;8.790;2023-05-24T08:40:48;26.27;;;6.90;;
17251;SDS011;8742;51.716;8.790;2023-05-24T08:43:14;23.40;;;6.07;;
17251;SDS011;8742;51.716;8.790;2023-05-24T08:45:42;18.73;;;6.27;;
17251;SDS011;8742;51.716;8.790;2023-05-24T08:48:10;31.57;;;7.27;;
17251;SDS011;8742;51.716;8.790;2023-05-24T08:50:37;19.03;;;6.70;;
17251;SDS011;8742;51.716;8.790;2023-05-24T08:53:06;31.13;;;7.47;;
17251;SDS011;8742;51.716;8.790;2023-05-24T08:55:35;22.20;;;6.77;;
17251;SDS011;8742;51.716;8.790;2023-05-24T08:58:03;23.67;;;7.07;;
17251;SDS011;8742;51.716;8.790;2023-05-24T09:00:31;21.00;;;8.10;;
17251;SDS011;8742;51.716;8.790;2023-05-24T09:02:57;24.57;;;6.83;;
17251;SDS011;8742;51.716;8.790;2023-05-24T09:05:26;21.77;;;6.10;;
17251;SDS011;8742;51.716;8.790;2023-05-24T09:07:55;19.33;;;5.53;;
17251;SDS011;8742;51.716;8.790;2023-05-24T09:10:26;13.70;;;5.70;;
17251;SDS011;8742;51.716;8.790;2023-05-24T09:12:55;21.40;;;6.20;;
17251;SDS011;8742;51.716;8.790;2023-05-24T09:15:23;22.77;;;6.30;;
17251;SDS011;8742;51.716;8.790;2023-05-24T09:17:50;25.97;;;6.77;;
17251;SDS011;8742;51.716;8.790;2023-05-24T09:20:17;20.73;;;5.83;;
17251;SDS011;8742;51.716;8.790;2023-05-24T09:22:45;21.50;;;6.30;;
17251;SDS011;8742;51.716;8.790;2023-05-24T09:25:16;22.23;;;6.00;;
17251;SDS011;8742;51.716;8.790;2023-05-24T09:27:49;24.47;;;6.57;;
17251;SDS011;8742;51.716;8.790;2023-05-24T09:30:16;26.57;;;7.80;;
17251;SDS011;8742;51.716;8.790;2023-05-24T09:32:52;17.53;;;5.87;;
17251;SDS011;8742;51.716;8.790;2023-05-24T09:35:21;22.37;;;6.33;;
17251;SDS011;8742;51.716;8.790;2023-05-24T09:37:48;31.30;;;7.03;;
17251;SDS011;8742;51.716;8.790;2023-05-24T09:40:18;19.60;;;5.77;;
17251;SDS011;8742;51.716;8.790;2023-05-24T09:42:46;22.77;;;5.87;;
17251;SDS011;8742;51.716;8.790;2023-05-24T09:45:16;20.50;;;5.90;;
17251;SDS011;8742;51.716;8.790;2023-05-24T09:47:43;23.37;;;6.40;;
17251;SDS011;8742;51.716;8.790;2023-05-24T09:50:11;19.90;;;6.10;;
17251;SDS011;8742;51.716;8.790;2023-05-24T09:52:39;23.57;;;5.67;;
17251;SDS011;8742;51.716;8.790;2023-05-24T09:55:13;18.60;;;5.67;;
17251;SDS011;8742;51.716;8.790;2023-05-24T09:57:40;16.87;;;5.53;;
17251;SDS011;8742;51.716;8.790;2023-05-24T10:00:09;20.17;;;5.43;;
17251;SDS011;8742;51.716;8.790;2023-05-24T10:02:43;21.33;;;5.83;;
17251;SDS011;8742;51.716;8.790;2023-05-24T10:05:10;11.63;;;4.67;;
17251;SDS011;8742;51.716;8.790;2023-05-24T10:07:38;17.87;;;5.50;;
17251;SDS011;8742;51.716;8.790;2023-05-24T10:10:06;15.43;;;5.43;;
17251;SDS011;8742;51.716;8.790;2023-05-24T10:12:35;14.03;;;5.27;;
17251;SDS011;8742;51.716;8.790;2023-05-24T10:15:07;17.13;;;4.57;;
17251;SDS011;8742;51.716;8.790;2023-05-24T10:17:36;23.93;;;5.40;;
17251;SDS011;8742;51.716;8.790;2023-05-24T10:20:05;19.00;;;5.33;;
17251;SDS011;8742;51.716;8.790;2023-05-24T10:22:32;19.00;;;5.23;;
17251;SDS011;8742;51.716;8.790;2023-05-24T10:25:05;20.43;;;5.90;;
17251;SDS011;8742;51.716;8.790;2023-05-24T10:27:36;23.43;;;4.97;;
17251;SDS011;8742;51.716;8.790;2023-05-24T10:30:07;20.07;;;5.40;;
17251;SDS011;8742;51.716;8.790;2023-05-24T10:32:42;24.67;;;5.80;;
17251;SDS011;8742;51.716;8.790;2023-05-24T10:35:11;20.27;;;5.30;;
17251;SDS011;8742;51.716;8.790;2023-05-24T10:37:40;24.10;;;5.83;;
17251;SDS011;8742;51.716;8.790;2023-05-24T10:40:15;19.97;;;5.47;;
17251;SDS011;8742;51.716;8.790;2023-05-24T10:42:43;22.20;;;5.70;;
17251;SDS011;8742;51.716;8.790;2023-05-24T10:45:30;25.07;;;6.63;;
17251;SDS011;8742;51.716;8.790;2023-05-24T10:48:07;22.93;;;6.50;;
17251;SDS011;8742;51.716;8.790;2023-05-24T10:50:36;23.77;;;6.97;;
17251;SDS011;8742;51.716;8.790;2023-05-24T10:53:12;20.70;;;5.93;;
17251;SDS011;8742;51.716;8.790;2023-05-24T10:55:50;14.87;;;5.97;;
17251;SDS011;8742;51.716;8.790;2023-05-24T10:58:18;18.43;;;5.93;;
17251;SDS011;8742;51.716;8.790;2023-05-24T11:00:45;26.00;;;6.83;;
17251;SDS011;8742;51.716;8.790;2023-05-24T11:03:17;22.93;;;5.87;;
17251;SDS011;8742;51.716;8.790;2023-05-24T11:05:50;19.93;;;5.77;;
17251;SDS011;8742;51.716;8.790;2023-05-24T11:08:22;17.80;;;4.90;;
17251;SDS011;8742;51.716;8.790;2023-05-24T11:11:00;16.63;;;5.23;;
17251;SDS011;8742;51.716;8.790;2023-05-24T11:13:29;17.93;;;5.50;;
17251;SDS011;8742;51.716;8.790;2023-05-24T11:15:55;21.67;;;5.30;;
17251;SDS011;8742;51.716;8.790;2023-05-24T11:18:22;19.30;;;5.57;;
17251;SDS011;8742;51.716;8.790;2023-05-24T11:20:50;21.53;;;5.37;;
17251;SDS011;8742;51.716;8.790;2023-05-24T11:23:18;19.13;;;5.43;;
17251;SDS011;8742;51.716;8.790;2023-05-24T11:25:45;16.87;;;5.60;;
17251;SDS011;8742;51.716;8.790;2023-05-24T11:28:12;16.70;;;5.30;;
17251;SDS011;8742;51.716;8.790;2023-05-24T11:30:39;13.97;;;5.27;;
17251;SDS011;8742;51.716;8.790;2023-05-24T11:33:12;15.53;;;5.30;;
17251;SDS011;8742;51.716;8.790;2023-05-24T11:35:40;25.90;;;5.80;;
17251;SDS011;8742;51.716;8.790;2023-05-24T11:38:09;21.10;;;6.60;;
17251;SDS011;8742;51.716;8.790;2023-05-24T11:40:38;18.83;;;6.33;;
17251;SDS011;8742;51.716;8.790;2023-05-24T11:43:09;20.73;;;6.10;;
17251;SDS011;8742;51.716;8.790;2023-05-24T11:45:38;15.80;;;5.63;;
17251;SDS011;8742;51.716;8.790;2023-05-24T11:48:07;13.57;;;4.73;;
17251;SDS011;8742;51.716;8.790;2023-05-24T11:50:38;17.73;;;5.07;;
17251;SDS011;8742;51.716;8.790;2023-05-24T11:53:05;17.60;;;5.00;;
17251;SDS011;8742;51.716;8.790;2023-05-24T11:55:36;19.73;;;5.60;;
17251;SDS011;8742;51.716;8.790;2023-05-24T11:58:05;18.40;;;5.43;;
17251;SDS011;8742;51.716;8.790;2023-05-24T12:00:35;16.93;;;4.97;;
17251;SDS011;8742;51.716;8.790;2023-05-24T12:03:03;21.43;;;5.30;;
17251;SDS011;8742;51.716;8.790;2023-05-24T12:05:32;16.67;;;5.67;;
17251;SDS011;8742;51.716;8.790;2023-05-24T12:08:01;19.73;;;6.93;;
17251;SDS011;8742;51.716;8.790;2023-05-24T12:10:31;15.53;;;5.53;;
17251;SDS011;8742;51.716;8.790;2023-05-24T12:12:59;18.63;;;5.93;;
17251;SDS011;8742;51.716;8.790;2023-05-24T12:15:26;16.63;;;5.20;;
17251;SDS011;8742;51.716;8.790;2023-05-24T12:17:53;16.73;;;5.40;;
17251;SDS011;8742;51.716;8.790;2023-05-24T12:20:20;20.17;;;5.83;;
17251;SDS011;8742;51.716;8.790;2023-05-24T12:22:48;16.23;;;5.47;;
17251;SDS011;8742;51.716;8.790;2023-05-24T12:25:16;16.70;;;5.10;;
17251;SDS011;8742;51.716;8.790;2023-05-24T12:27:46;13.90;;;4.87;;
17251;SDS011;8742;51.716;8.790;2023-05-24T12:30:20;17.07;;;5.73;;
17251;SDS011;8742;51.716;8.790;2023-05-24T12:32:47;14.00;;;5.33;;
17251;SDS011;8742;51.716;8.790;2023-05-24T12:35:15;24.70;;;6.50;;
17251;SDS011;8742;51.716;8.790;2023-05-24T12:37:43;18.90;;;6.10;;
17251;SDS011;8742;51.716;8.790;2023-05-24T12:40:14;18.67;;;5.43;;
17251;SDS011;8742;51.716;8.790;2023-05-24T12:42:44;20.63;;;6.00;;
17251;SDS011;8742;51.716;8.790;2023-05-24T12:45:15;24.57;;;6.07;;
17251;SDS011;8742;51.716;8.790;2023-05-24T12:47:48;17.77;;;6.17;;
17251;SDS011;8742;51.716;8.790;2023-05-24T12:50:16;17.30;;;5.67;;
17251;SDS011;8742;51.716;8.790;2023-05-24T12:52:43;14.73;;;5.53;;
17251;SDS011;8742;51.716;8.790;2023-05-24T12:55:11;18.90;;;5.77;;
17251;SDS011;8742;51.716;8.790;2023-05-24T12:57:39;13.90;;;5.10;;
17251;SDS011;8742;51.716;8.790;2023-05-24T13:00:09;16.73;;;6.50;;
17251;SDS011;8742;51.716;8.790;2023-05-24T13:02:38;10.87;;;5.03;;
17251;SDS011;8742;51.716;8.790;2023-05-24T13:05:06;15.37;;;5.80;;
17251;SDS011;8742;51.716;8.790;2023-05-24T13:07:34;16.67;;;5.63;;
17251;SDS011;8742;51.716;8.790;2023-05-24T13:10:01;17.93;;;5.73;;
17251;SDS011;8742;51.716;8.790;2023-05-24T13:12:28;14.63;;;5.83;;
17251;SDS011;8742;51.716;8.790;2023-05-24T13:14:55;23.60;;;7.37;;
17251;SDS011;8742;51.716;8.790;2023-05-24T13:17:23;18.33;;;6.87;;
17251;SDS011;8742;51.716;8.790;2023-05-24T13:19:50;15.57;;;5.77;;
17251;SDS011;8742;51.716;8.790;2023-05-24T13:22:17;14.57;;;5.77;;
17251;SDS011;8742;51.716;8.790;2023-05-24T13:24:45;16.27;;;5.20;;
17251;SDS011;8742;51.716;8.790;2023-05-24T13:27:11;12.27;;;5.27;;
17251;SDS011;8742;51.716;8.790;2023-05-24T13:29:38;18.43;;;5.23;;
17251;SDS011;8742;51.716;8.790;2023-05-24T13:32:05;13.40;;;5.23;;
17251;SDS011;8742;51.716;8.790;2023-05-24T13:34:33;13.97;;;5.07;;
17251;SDS011;8742;51.716;8.790;2023-05-24T13:37:01;15.57;;;4.80;;
17251;SDS011;8742;51.716;8.790;2023-05-24T13:39:27;11.03;;;4.90;;
17251;SDS011;8742;51.716;8.790;2023-05-24T13:41:54;15.07;;;5.17;;
17251;SDS011;8742;51.716;8.790;2023-05-24T13:44:21;18.10;;;4.90;;
17251;SDS011;8742;51.716;8.790;2023-05-24T13:46:48;13.53;;;4.50;;
17251;SDS011;8742;51.716;8.790;2023-05-24T13:49:15;14.77;;;5.17;;
17251;SDS011;8742;51.716;8.790;2023-05-24T13:51:43;15.23;;;4.60;;
17251;SDS011;8742;51.716;8.790;2023-05-24T13:54:11;13.90;;;5.20;;
17251;SDS011;8742;51.716;8.790;2023-05-24T13:56:38;16.33;;;5.00;;
17251;SDS011;8742;51.716;8.790;2023-05-24T13:59:06;24.00;;;5.63;;
17251;SDS011;8742;51.716;8.790;2023-05-24T14:01:33;17.27;;;4.83;;
17251;SDS011;8742;51.716;8.790;2023-05-24T14:04:02;14.67;;;5.13;;
17251;SDS011;8742;51.716;8.790;2023-05-24T14:06:30;14.90;;;4.93;;
17251;SDS011;8742;51.716;8.790;2023-05-24T14:08:59;15.37;;;5.43;;
17251;SDS011;8742;51.716;8.790;2023-05-24T14:11:26;15.77;;;5.20;;
17251;SDS011;8742;51.716;8.790;2023-05-24T14:13:55;18.97;;;5.97;;
17251;SDS011;8742;51.716;8.790;2023-05-24T14:16:22;17.80;;;6.17;;
17251;SDS011;8742;51.716;8.790;2023-05-24T14:18:49;15.73;;;5.07;;
17251;SDS011;8742;51.716;8.790;2023-05-24T14:21:16;12.60;;;5.43;;
17251;SDS011;8742;51.716;8.790;2023-05-24T14:23:45;20.90;;;5.87;;
17251;SDS011;8742;51.716;8.790;2023-05-24T14:26:13;12.93;;;5.67;;
17251;SDS011;8742;51.716;8.790;2023-05-24T14:28:41;12.40;;;5.13;;
17251;SDS011;8742;51.716;8.790;2023-05-24T14:31:08;18.63;;;6.30;;
17251;SDS011;8742;51.716;8.790;2023-05-24T14:33:35;18.70;;;6.13;;
17251;SDS011;8742;51.716;8.790;2023-05-24T14:36:02;18.37;;;5.80;;
17251;SDS011;8742;51.716;8.790;2023-05-24T14:38:30;16.83;;;6.07;;
17251;SDS011;8742;51.716;8.790;2023-05-24T14:40:57;18.40;;;5.77;;
17251;SDS011;8742;51.716;8.790;2023-05-24T14:43:26;19.50;;;6.33;;
17251;SDS011;8742;51.716;8.790;2023-05-24T14:45:53;24.40;;;6.07;;
17251;SDS011;8742;51.716;8.790;2023-05-24T14:48:20;15.87;;;5.90;;
17251;SDS011;8742;51.716;8.790;2023-05-24T14:50:47;15.00;;;5.63;;
17251;SDS011;8742;51.716;8.790;2023-05-24T14:53:14;17.47;;;6.37;;
17251;SDS011;8742;51.716;8.790;2023-05-24T14:55:41;26.40;;;6.30;;